默认 日期 大小 文件数 浏览量 最新下载 xml
08.18磁力链接相关资源由用户搜索指令自动获取,结果来源于网络,本站不存储任何资料,亦不承担任何责任,请于24小时内删除,搜索到25360个磁力,显示前4000条数据,用时33ms。
    {"RARBG.txt": 30, "femjoy.18.08.18.katrine.pirs.new.talent.mp4": 292885889, "femjoy.18.08.18.katrine.pirs.new.talent.nfo": 5185}
创建时间: 2018-12-16 04:49:04 大小:279.32 MB 文件数量:3 热度:43 最近下载:2025-03-06 21:29:02
    {"Sample": {"cosplay.14.08.18.elouise.please.geek.girl.elouise-sample.mp4": 35066201}, "RARBG.com.txt": 34, "cosplay.14.08.18.elouise.please.geek.girl.elouise.mp4": 346375416, "cosplay.14.08.18.elouise.please.geek.girl.elouise.nfo": 6991}
创建时间: 2018-12-16 04:59:46 大小:363.78 MB 文件数量:4 热度:13 最近下载:2025-10-03 21:57:03
    {"RARBG.txt": 30, "TeenCreeper.17.08.18.Annika.Eve.And.Hime.Marie.mp4": 11770908506, "teencreeper.17.08.18.annika.eve.and.hime.marie.nfo": 629}
创建时间: 2018-12-16 05:48:25 大小:10.96 GB 文件数量:3 热度:68 最近下载:2025-09-09 01:43:02
    {"RARBG.txt": 30, "gush.penthouse.16.08.18.tara.holiday.and.yurizan.beltran.in.women.in.power.mp4": 1322220567, "gush.penthouse.16.08.18.tara.holiday.and.yurizan.beltran.in.women.in.power.nfo": 9253}
创建时间: 2018-12-16 11:19:13 大小:1.23 GB 文件数量:3 热度:26 最近下载:2025-08-04 20:42:04
    {"RARBG.txt": 30, "tot.18.08.18.lady.bug.4k.mp4": 4093063781, "tot.18.08.18.lady.bug.4k.nfo": 5195}
创建时间: 2018-12-16 11:50:40 大小:3.81 GB 文件数量:3 热度:43 最近下载:2025-07-31 07:06:06
    ... The Beautiful - S29 Ep7400 - 2016-08-18.mp4": 522364049, "The Bold And ... The Beautiful - S29 Ep7400 - 2016-08-18.srt": 30156, "The Bold And ... - Next On B&B - 2016-08-19.mp4": 13077351, "The Bold ... - Blind Spot (Bonus Scene) - 2016-08-18.mp4": 69177976}
创建时间: 2018-12-16 12:06:47 大小:576.64 MB 文件数量:5 热度:5 最近下载:2022-04-23 06:59:52
    {"RARBG.com.txt": 34, "pbp.15.08.18.dominique.jane.role.play.mp4": 114328350, "pbp.15.08.18.dominique.jane.role.play.nfo": 5197}
创建时间: 2018-12-16 13:35:22 大小:109.04 MB 文件数量:3 热度:14 最近下载:2024-09-05 01:18:02
    {"RARBG.txt": 30, "pml.17.08.18.ms.juicy.gettin.glazed.mp4": 1195183407, "pml.17.08.18.ms.juicy.gettin.glazed.nfo": 5201}
创建时间: 2018-12-16 13:45:15 大小:1.11 GB 文件数量:3 热度:16 最近下载:2025-08-07 15:34:02
    {"PropertySex - 10.08.18 - Stella Cox - Close And Personal - XXX HD 1080P WEBRIP MP4.MP4": 248140367}
创建时间: 2018-12-16 14:27:04 大小:236.65 MB 文件数量:1 热度:19 最近下载:2025-07-17 20:04:01
    {"RARBG.txt": 30, "analized.18.08.18.kissa.sins.at.her.most.hardcore.mp4": 3800753293, "analized.18.08.18.kissa.sins.at.her.most.hardcore.nfo": 5199}
创建时间: 2018-12-16 14:58:04 大小:3.54 GB 文件数量:3 热度:26 最近下载:2025-05-02 15:12:01
    {"RARBG.txt": 30, "Beauty4K.18.08.18.Angel.Emily.XXX.SD.MP4-KLEENEX.mp4": 272475341}
创建时间: 2018-12-16 15:51:27 大小:259.85 MB 文件数量:2 热度:7 最近下载:2024-09-07 18:17:02
    {"file_id.diz": 63, "gagball.nfo": 226, "1136_001.jpg": 1333493, "1136_002.jpg": 1664063, "1136_003.jpg": 1455462, "1136_004.jpg": 2734685, "1136_005.jpg": 1788460, "1136_006.jpg": 2028688, "1136_007.jpg": 1909940, "1136_008.jpg": 1928921, "1136_009.jpg": ...
创建时间: 2018-12-16 16:23:45 大小:99.98 MB 文件数量:55 热度:10 最近下载:2025-04-10 20:38:01
    {"hgf.17.08.18.derek.jones.and.emma.heart[N1C].mp4": 1288659945}
创建时间: 2018-12-16 16:28:43 大小:1.2 GB 文件数量:1 热度:7 最近下载:2022-04-23 06:07:39
    {"mistresst.17.08.18.facesitting.for.1.cum.eating.for.the.other[N1C].mp4": 209797648}
创建时间: 2018-12-16 16:28:56 大小:200.08 MB 文件数量:1 热度:11 最近下载:2025-01-27 19:46:02
    {"BlackGFs.15.08.18.Back.Shot.XXX.HR.MP4-KTR.mp4": 333893098}
创建时间: 2018-12-16 17:13:50 大小:318.43 MB 文件数量:1 热度:9 最近下载:2025-04-02 14:52:02
    {"cucked.17.08.18.lea.lexis.my.useless.husband[N1C].mp4": 2408471607}
创建时间: 2018-12-16 17:54:17 大小:2.24 GB 文件数量:1 热度:20 最近下载:2024-10-01 17:07:01
    {"RARBG.txt": 30, "girlsrimming.18.08.18.monica.wild.tailor.made.pleasure.mp4": 2144979320, "girlsrimming.18.08.18.monica.wild.tailor.made.pleasure.nfo": 526}
创建时间: 2018-12-16 21:05:24 大小:2 GB 文件数量:3 热度:17 最近下载:2025-03-01 19:52:05
    {"RARBG.com.txt": 34, "pbp.16.08.18.amberleigh.west.by.the.firelight.mp4": 308632637, "pbp.16.08.18.amberleigh.west.by.the.firelight.nfo": 5206}
创建时间: 2018-12-16 23:37:30 大小:294.34 MB 文件数量:3 热度:30 最近下载:2025-08-06 12:20:01
    {"Sample": {"vsex-leia-christiana-poolside-prance-nude-sample.mp4": 19309980}, "RARBG.com.txt": 34, "leia-christiana-poolside-prance-nude.mp4": 154999440, "vsex-leia-christiana-poolside-prance-nude.nfo": 610}
创建时间: 2018-12-17 01:11:41 大小:166.24 MB 文件数量:4 热度:14 最近下载:2025-05-07 21:16:03
    {"Folder.jpg": 111561, "results.log": 1355, "Cover Back.jpg": 174438, "Cover Front.jpg": 403131, "03 more Deep.flac": 28085133, "01 THE ANTHEM.flac": 13236193, "05 Ran Toge C.flac": 22783601, "02 MY SWEET BLACK.flac": 31031070, "04 Namida Aya No Hana.flac ...
创建时间: 2018-12-17 04:26:56 大小:123.06 MB 文件数量:9 热度:6 最近下载:2025-01-26 09:50:03